sensor_id;sensor_type;location;lat;lon;timestamp;temperature;humidity
25154;DHT22;47555;51.038;6.280;2023-03-21T00:00:26;9.90;86.00
25154;DHT22;47555;51.038;6.280;2023-03-21T00:02:52;9.90;86.10
25154;DHT22;47555;51.038;6.280;2023-03-21T00:05:17;9.90;86.10
25154;DHT22;47555;51.038;6.280;2023-03-21T00:07:45;9.90;86.20
25154;DHT22;47555;51.038;6.280;2023-03-21T00:10:10;9.90;86.10
25154;DHT22;47555;51.038;6.280;2023-03-21T00:12:36;9.90;86.20
25154;DHT22;47555;51.038;6.280;2023-03-21T00:15:06;9.90;86.40
25154;DHT22;47555;51.038;6.280;2023-03-21T00:17:33;9.90;86.60
25154;DHT22;47555;51.038;6.280;2023-03-21T00:20:03;9.90;86.50
25154;DHT22;47555;51.038;6.280;2023-03-21T00:22:35;9.90;86.70
25154;DHT22;47555;51.038;6.280;2023-03-21T00:25:01;9.90;86.90
25154;DHT22;47555;51.038;6.280;2023-03-21T00:27:27;9.90;86.80
25154;DHT22;47555;51.038;6.280;2023-03-21T00:29:53;9.90;87.30
25154;DHT22;47555;51.038;6.280;2023-03-21T00:32:20;10.00;87.20
25154;DHT22;47555;51.038;6.280;2023-03-21T00:34:46;10.00;87.00
25154;DHT22;47555;51.038;6.280;2023-03-21T00:37:12;9.90;87.20
25154;DHT22;47555;51.038;6.280;2023-03-21T00:39:41;10.00;87.50
25154;DHT22;47555;51.038;6.280;2023-03-21T00:42:06;9.90;88.10
25154;DHT22;47555;51.038;6.280;2023-03-21T00:44:32;10.00;88.20
25154;DHT22;47555;51.038;6.280;2023-03-21T00:47:02;10.00;88.50
25154;DHT22;47555;51.038;6.280;2023-03-21T00:49:28;10.00;88.60
25154;DHT22;47555;51.038;6.280;2023-03-21T00:52:01;10.00;88.60
25154;DHT22;47555;51.038;6.280;2023-03-21T00:54:27;10.00;88.80
25154;DHT22;47555;51.038;6.280;2023-03-21T00:56:53;10.00;89.20
25154;DHT22;47555;51.038;6.280;2023-03-21T00:59:19;10.00;89.20
25154;DHT22;47555;51.038;6.280;2023-03-21T01:01:45;10.00;89.40
25154;DHT22;47555;51.038;6.280;2023-03-21T01:04:12;10.00;89.50
25154;DHT22;47555;51.038;6.280;2023-03-21T01:06:40;10.10;89.40
25154;DHT22;47555;51.038;6.280;2023-03-21T01:09:08;10.10;89.40
25154;DHT22;47555;51.038;6.280;2023-03-21T01:11:35;10.10;89.60
25154;DHT22;47555;51.038;6.280;2023-03-21T01:14:04;10.00;89.70
25154;DHT22;47555;51.038;6.280;2023-03-21T01:16:30;10.10;90.00
25154;DHT22;47555;51.038;6.280;2023-03-21T01:18:56;10.10;90.10
25154;DHT22;47555;51.038;6.280;2023-03-21T01:21:21;10.00;90.10
25154;DHT22;47555;51.038;6.280;2023-03-21T01:23:50;10.00;90.20
25154;DHT22;47555;51.038;6.280;2023-03-21T01:26:15;10.10;90.30
25154;DHT22;47555;51.038;6.280;2023-03-21T01:28:42;10.00;90.30
25154;DHT22;47555;51.038;6.280;2023-03-21T01:31:11;9.90;90.70
25154;DHT22;47555;51.038;6.280;2023-03-21T01:33:37;9.90;90.70
25154;DHT22;47555;51.038;6.280;2023-03-21T01:36:03;9.90;90.80
25154;DHT22;47555;51.038;6.280;2023-03-21T01:38:30;9.90;91.00
25154;DHT22;47555;51.038;6.280;2023-03-21T01:40:58;9.80;91.00
25154;DHT22;47555;51.038;6.280;2023-03-21T01:43:33;9.80;91.00
25154;DHT22;47555;51.038;6.280;2023-03-21T01:48:36;9.80;91.50
25154;DHT22;47555;51.038;6.280;2023-03-21T01:51:03;9.70;91.70
25154;DHT22;47555;51.038;6.280;2023-03-21T01:53:30;9.70;91.70
25154;DHT22;47555;51.038;6.280;2023-03-21T01:56:04;9.60;91.60
25154;DHT22;47555;51.038;6.280;2023-03-21T01:58:31;9.60;91.60
25154;DHT22;47555;51.038;6.280;2023-03-21T02:00:57;9.50;91.60
25154;DHT22;47555;51.038;6.280;2023-03-21T02:03:24;9.40;91.50
25154;DHT22;47555;51.038;6.280;2023-03-21T02:06:01;9.40;91.40
25154;DHT22;47555;51.038;6.280;2023-03-21T02:08:32;9.30;91.80
25154;DHT22;47555;51.038;6.280;2023-03-21T02:10:58;9.30;92.00
25154;DHT22;47555;51.038;6.280;2023-03-21T02:13:24;9.20;92.10
25154;DHT22;47555;51.038;6.280;2023-03-21T02:15:58;9.10;92.50
25154;DHT22;47555;51.038;6.280;2023-03-21T02:18:41;9.10;93.00
25154;DHT22;47555;51.038;6.280;2023-03-21T02:24:09;9.10;94.00
25154;DHT22;47555;51.038;6.280;2023-03-21T02:34:50;9.00;95.30
25154;DHT22;47555;51.038;6.280;2023-03-21T02:37:32;9.00;95.40
25154;DHT22;47555;51.038;6.280;2023-03-21T02:40:22;8.90;95.80
25154;DHT22;47555;51.038;6.280;2023-03-21T02:43:03;8.90;96.10
25154;DHT22;47555;51.038;6.280;2023-03-21T02:45:53;8.90;96.30
25154;DHT22;47555;51.038;6.280;2023-03-21T02:48:26;9.00;96.70
25154;DHT22;47555;51.038;6.280;2023-03-21T02:50:56;9.00;96.70
25154;DHT22;47555;51.038;6.280;2023-03-21T02:53:25;9.00;97.00
25154;DHT22;47555;51.038;6.280;2023-03-21T02:55:52;9.00;97.60
25154;DHT22;47555;51.038;6.280;2023-03-21T02:58:21;9.00;97.40
25154;DHT22;47555;51.038;6.280;2023-03-21T03:00:48;9.00;97.50
25154;DHT22;47555;51.038;6.280;2023-03-21T03:03:14;9.00;97.60
25154;DHT22;47555;51.038;6.280;2023-03-21T03:05:47;9.00;97.80
25154;DHT22;47555;51.038;6.280;2023-03-21T03:11:23;9.00;98.40
25154;DHT22;47555;51.038;6.280;2023-03-21T03:19:33;9.10;99.90
25154;DHT22;47555;51.038;6.280;2023-03-21T03:22:08;9.10;99.90
25154;DHT22;47555;51.038;6.280;2023-03-21T03:24:43;9.10;99.80
25154;DHT22;47555;51.038;6.280;2023-03-21T03:27:18;9.20;99.80
25154;DHT22;47555;51.038;6.280;2023-03-21T03:29:46;9.20;99.60
25154;DHT22;47555;51.038;6.280;2023-03-21T03:32:17;9.30;99.70
25154;DHT22;47555;51.038;6.280;2023-03-21T03:34:48;9.30;99.70
25154;DHT22;47555;51.038;6.280;2023-03-21T03:37:16;9.30;99.30
25154;DHT22;47555;51.038;6.280;2023-03-21T03:40:01;9.30;99.20
25154;DHT22;47555;51.038;6.280;2023-03-21T03:42:34;9.30;99.20
25154;DHT22;47555;51.038;6.280;2023-03-21T03:45:00;9.30;99.40
25154;DHT22;47555;51.038;6.280;2023-03-21T03:47:39;9.30;99.80
25154;DHT22;47555;51.038;6.280;2023-03-21T03:50:07;9.30;99.80
25154;DHT22;47555;51.038;6.280;2023-03-21T03:52:37;9.30;99.90
25154;DHT22;47555;51.038;6.280;2023-03-21T03:55:04;9.30;99.10
25154;DHT22;47555;51.038;6.280;2023-03-21T03:57:30;9.40;98.20
25154;DHT22;47555;51.038;6.280;2023-03-21T03:59:57;9.40;97.30
25154;DHT22;47555;51.038;6.280;2023-03-21T04:02:22;9.50;97.10
25154;DHT22;47555;51.038;6.280;2023-03-21T04:04:48;9.50;96.10
25154;DHT22;47555;51.038;6.280;2023-03-21T04:07:20;9.60;95.50
25154;DHT22;47555;51.038;6.280;2023-03-21T04:09:46;9.60;95.10
25154;DHT22;47555;51.038;6.280;2023-03-21T04:12:12;9.70;94.80
25154;DHT22;47555;51.038;6.280;2023-03-21T04:14:39;9.70;95.00
25154;DHT22;47555;51.038;6.280;2023-03-21T04:17:04;9.70;94.90
25154;DHT22;47555;51.038;6.280;2023-03-21T04:19:30;9.70;94.50
25154;DHT22;47555;51.038;6.280;2023-03-21T04:21:56;9.80;94.70
25154;DHT22;47555;51.038;6.280;2023-03-21T04:24:22;9.80;94.90
25154;DHT22;47555;51.038;6.280;2023-03-21T04:26:47;9.80;95.40
25154;DHT22;47555;51.038;6.280;2023-03-21T04:29:14;9.80;95.70
25154;DHT22;47555;51.038;6.280;2023-03-21T04:31:39;9.80;95.80
25154;DHT22;47555;51.038;6.280;2023-03-21T04:34:05;9.70;96.00
25154;DHT22;47555;51.038;6.280;2023-03-21T04:36:34;9.60;96.10
25154;DHT22;47555;51.038;6.280;2023-03-21T04:39:04;9.80;96.30
25154;DHT22;47555;51.038;6.280;2023-03-21T04:41:40;9.80;96.70
25154;DHT22;47555;51.038;6.280;2023-03-21T04:44:06;9.70;96.70
25154;DHT22;47555;51.038;6.280;2023-03-21T04:46:33;9.70;97.50
25154;DHT22;47555;51.038;6.280;2023-03-21T04:48:59;9.70;97.90
25154;DHT22;47555;51.038;6.280;2023-03-21T04:51:24;9.70;98.70
25154;DHT22;47555;51.038;6.280;2023-03-21T04:53:50;9.70;97.80
25154;DHT22;47555;51.038;6.280;2023-03-21T04:56:17;9.70;97.80
25154;DHT22;47555;51.038;6.280;2023-03-21T04:58:43;9.70;97.90
25154;DHT22;47555;51.038;6.280;2023-03-21T05:01:08;9.70;98.30
25154;DHT22;47555;51.038;6.280;2023-03-21T05:03:34;9.70;98.40
25154;DHT22;47555;51.038;6.280;2023-03-21T05:06:07;9.70;99.10
25154;DHT22;47555;51.038;6.280;2023-03-21T05:08:37;9.70;98.60
25154;DHT22;47555;51.038;6.280;2023-03-21T05:11:03;9.70;98.70
25154;DHT22;47555;51.038;6.280;2023-03-21T05:13:28;9.70;98.50
25154;DHT22;47555;51.038;6.280;2023-03-21T05:15:54;9.70;98.50
25154;DHT22;47555;51.038;6.280;2023-03-21T05:18:20;9.70;98.80
25154;DHT22;47555;51.038;6.280;2023-03-21T05:20:50;9.70;98.80
25154;DHT22;47555;51.038;6.280;2023-03-21T05:23:19;9.70;98.90
25154;DHT22;47555;51.038;6.280;2023-03-21T05:25:44;9.70;99.60
25154;DHT22;47555;51.038;6.280;2023-03-21T05:28:10;9.70;99.00
25154;DHT22;47555;51.038;6.280;2023-03-21T05:30:35;9.60;99.00
25154;DHT22;47555;51.038;6.280;2023-03-21T05:33:01;9.60;99.10
25154;DHT22;47555;51.038;6.280;2023-03-21T05:35:26;9.60;99.20
25154;DHT22;47555;51.038;6.280;2023-03-21T05:37:52;9.60;99.30
25154;DHT22;47555;51.038;6.280;2023-03-21T05:40:18;9.60;99.50
25154;DHT22;47555;51.038;6.280;2023-03-21T05:42:45;9.60;99.50
25154;DHT22;47555;51.038;6.280;2023-03-21T05:45:11;9.70;99.40
25154;DHT22;47555;51.038;6.280;2023-03-21T05:47:37;9.60;99.50
25154;DHT22;47555;51.038;6.280;2023-03-21T05:50:03;9.70;99.50
25154;DHT22;47555;51.038;6.280;2023-03-21T05:52:29;9.70;99.60
25154;DHT22;47555;51.038;6.280;2023-03-21T05:54:54;9.70;99.50
25154;DHT22;47555;51.038;6.280;2023-03-21T05:57:20;9.70;99.60
25154;DHT22;47555;51.038;6.280;2023-03-21T05:59:46;9.70;99.80
25154;DHT22;47555;51.038;6.280;2023-03-21T06:02:11;9.70;99.90
25154;DHT22;47555;51.038;6.280;2023-03-21T06:04:37;9.70;99.90
25154;DHT22;47555;51.038;6.280;2023-03-21T06:07:02;9.70;99.90
25154;DHT22;47555;51.038;6.280;2023-03-21T06:09:28;9.60;99.90
25154;DHT22;47555;51.038;6.280;2023-03-21T06:11:55;9.70;99.90
25154;DHT22;47555;51.038;6.280;2023-03-21T06:14:22;9.70;99.90
25154;DHT22;47555;51.038;6.280;2023-03-21T06:16:48;9.70;99.90
25154;DHT22;47555;51.038;6.280;2023-03-21T06:19:13;9.70;99.60
25154;DHT22;47555;51.038;6.280;2023-03-21T06:21:39;9.70;99.60
25154;DHT22;47555;51.038;6.280;2023-03-21T06:24:05;9.70;99.90
25154;DHT22;47555;51.038;6.280;2023-03-21T06:26:30;9.70;99.90
25154;DHT22;47555;51.038;6.280;2023-03-21T06:28:56;9.70;99.90
25154;DHT22;47555;51.038;6.280;2023-03-21T06:31:22;9.70;99.90
25154;DHT22;47555;51.038;6.280;2023-03-21T06:33:48;9.70;99.90
25154;DHT22;47555;51.038;6.280;2023-03-21T06:36:14;9.70;99.90
25154;DHT22;47555;51.038;6.280;2023-03-21T06:38:40;9.60;99.90
25154;DHT22;47555;51.038;6.280;2023-03-21T06:41:08;9.60;99.90
25154;DHT22;47555;51.038;6.280;2023-03-21T06:43:34;9.60;99.90
25154;DHT22;47555;51.038;6.280;2023-03-21T06:46:00;9.60;99.90
25154;DHT22;47555;51.038;6.280;2023-03-21T06:48:26;9.60;99.90
25154;DHT22;47555;51.038;6.280;2023-03-21T06:50:52;9.60;99.90
25154;DHT22;47555;51.038;6.280;2023-03-21T06:53:18;9.60;99.90
25154;DHT22;47555;51.038;6.280;2023-03-21T06:55:49;9.60;99.90
25154;DHT22;47555;51.038;6.280;2023-03-21T06:58:14;9.70;99.90
25154;DHT22;47555;51.038;6.280;2023-03-21T07:00:40;9.70;99.90
25154;DHT22;47555;51.038;6.280;2023-03-21T07:03:06;9.70;99.90
25154;DHT22;47555;51.038;6.280;2023-03-21T07:05:31;9.70;99.90
25154;DHT22;47555;51.038;6.280;2023-03-21T07:07:59;9.70;99.90
25154;DHT22;47555;51.038;6.280;2023-03-21T07:10:25;9.70;99.90
25154;DHT22;47555;51.038;6.280;2023-03-21T07:12:51;9.70;99.90
25154;DHT22;47555;51.038;6.280;2023-03-21T07:15:16;9.70;99.90
25154;DHT22;47555;51.038;6.280;2023-03-21T07:17:42;9.70;99.90
25154;DHT22;47555;51.038;6.280;2023-03-21T07:20:08;9.70;99.90
25154;DHT22;47555;51.038;6.280;2023-03-21T07:22:34;9.70;99.90
25154;DHT22;47555;51.038;6.280;2023-03-21T07:25:00;9.70;99.90
25154;DHT22;47555;51.038;6.280;2023-03-21T07:27:25;9.70;99.90
25154;DHT22;47555;51.038;6.280;2023-03-21T07:29:51;9.70;99.90
25154;DHT22;47555;51.038;6.280;2023-03-21T07:32:16;9.70;99.90
25154;DHT22;47555;51.038;6.280;2023-03-21T07:34:42;9.70;99.90
25154;DHT22;47555;51.038;6.280;2023-03-21T07:37:07;9.70;99.90
25154;DHT22;47555;51.038;6.280;2023-03-21T07:39:34;9.70;99.90
25154;DHT22;47555;51.038;6.280;2023-03-21T07:42:00;9.70;99.90
25154;DHT22;47555;51.038;6.280;2023-03-21T07:44:27;9.70;99.90
25154;DHT22;47555;51.038;6.280;2023-03-21T07:46:53;9.70;99.90
25154;DHT22;47555;51.038;6.280;2023-03-21T07:49:19;9.70;99.90
25154;DHT22;47555;51.038;6.280;2023-03-21T07:51:45;9.70;99.90
25154;DHT22;47555;51.038;6.280;2023-03-21T07:54:10;9.70;99.90
25154;DHT22;47555;51.038;6.280;2023-03-21T07:56:36;9.70;99.90
25154;DHT22;47555;51.038;6.280;2023-03-21T07:59:01;9.70;99.90
25154;DHT22;47555;51.038;6.280;2023-03-21T08:01:27;9.70;99.90
25154;DHT22;47555;51.038;6.280;2023-03-21T08:03:53;9.70;99.90
25154;DHT22;47555;51.038;6.280;2023-03-21T08:06:19;9.70;99.90
25154;DHT22;47555;51.038;6.280;2023-03-21T08:08:45;9.70;99.90
25154;DHT22;47555;51.038;6.280;2023-03-21T08:11:11;9.70;99.90
25154;DHT22;47555;51.038;6.280;2023-03-21T08:13:37;9.70;99.90
25154;DHT22;47555;51.038;6.280;2023-03-21T08:16:03;9.70;99.90
25154;DHT22;47555;51.038;6.280;2023-03-21T08:18:29;9.80;99.90
25154;DHT22;47555;51.038;6.280;2023-03-21T08:20:56;9.80;99.90
25154;DHT22;47555;51.038;6.280;2023-03-21T08:23:22;9.90;99.90
25154;DHT22;47555;51.038;6.280;2023-03-21T08:25:55;9.90;99.90
25154;DHT22;47555;51.038;6.280;2023-03-21T08:28:22;10.00;99.90
25154;DHT22;47555;51.038;6.280;2023-03-21T08:30:48;10.00;99.90
25154;DHT22;47555;51.038;6.280;2023-03-21T08:33:15;10.00;99.90
25154;DHT22;47555;51.038;6.280;2023-03-21T08:35:41;10.10;99.90
25154;DHT22;47555;51.038;6.280;2023-03-21T08:38:07;10.10;99.90
25154;DHT22;47555;51.038;6.280;2023-03-21T08:40:33;10.20;99.90
25154;DHT22;47555;51.038;6.280;2023-03-21T08:42:59;10.20;99.90
25154;DHT22;47555;51.038;6.280;2023-03-21T08:45:25;10.30;99.90
25154;DHT22;47555;51.038;6.280;2023-03-21T08:47:52;10.40;99.90
25154;DHT22;47555;51.038;6.280;2023-03-21T08:50:20;10.50;99.90
25154;DHT22;47555;51.038;6.280;2023-03-21T08:52:46;10.50;99.90
25154;DHT22;47555;51.038;6.280;2023-03-21T08:55:12;10.60;99.90
25154;DHT22;47555;51.038;6.280;2023-03-21T08:57:38;10.60;99.90
25154;DHT22;47555;51.038;6.280;2023-03-21T09:00:06;10.60;99.90
25154;DHT22;47555;51.038;6.280;2023-03-21T09:02:47;10.70;99.90
25154;DHT22;47555;51.038;6.280;2023-03-21T09:05:14;10.70;99.90
25154;DHT22;47555;51.038;6.280;2023-03-21T09:07:41;10.70;99.90
25154;DHT22;47555;51.038;6.280;2023-03-21T09:10:09;10.80;99.90
25154;DHT22;47555;51.038;6.280;2023-03-21T09:12:36;10.80;99.90
25154;DHT22;47555;51.038;6.280;2023-03-21T09:15:02;10.80;99.90
25154;DHT22;47555;51.038;6.280;2023-03-21T09:17:29;11.00;99.90
25154;DHT22;47555;51.038;6.280;2023-03-21T09:19:56;11.00;99.90
25154;DHT22;47555;51.038;6.280;2023-03-21T09:22:21;11.00;99.90
25154;DHT22;47555;51.038;6.280;2023-03-21T09:24:50;11.10;99.90
25154;DHT22;47555;51.038;6.280;2023-03-21T09:27:16;11.20;99.90
25154;DHT22;47555;51.038;6.280;2023-03-21T09:29:42;11.20;99.90
25154;DHT22;47555;51.038;6.280;2023-03-21T09:32:09;11.20;99.90
25154;DHT22;47555;51.038;6.280;2023-03-21T09:34:37;11.20;99.90
25154;DHT22;47555;51.038;6.280;2023-03-21T09:37:08;11.20;99.90
25154;DHT22;47555;51.038;6.280;2023-03-21T09:39:40;11.30;99.90
25154;DHT22;47555;51.038;6.280;2023-03-21T09:47:28;11.30;97.70
25154;DHT22;47555;51.038;6.280;2023-03-21T09:52:37;11.50;98.70
25154;DHT22;47555;51.038;6.280;2023-03-21T09:55:05;11.70;99.00
25154;DHT22;47555;51.038;6.280;2023-03-21T09:57:46;11.80;96.00
25154;DHT22;47555;51.038;6.280;2023-03-21T10:00:26;11.90;94.00
25154;DHT22;47555;51.038;6.280;2023-03-21T10:02:56;12.10;94.50
25154;DHT22;47555;51.038;6.280;2023-03-21T10:05:30;12.20;94.50
25154;DHT22;47555;51.038;6.280;2023-03-21T10:08:11;12.30;90.30
25154;DHT22;47555;51.038;6.280;2023-03-21T10:10:46;12.30;88.30
25154;DHT22;47555;51.038;6.280;2023-03-21T10:13:24;12.40;89.40
25154;DHT22;47555;51.038;6.280;2023-03-21T10:15:56;12.40;84.90
25154;DHT22;47555;51.038;6.280;2023-03-21T10:18:24;12.40;85.60
25154;DHT22;47555;51.038;6.280;2023-03-21T10:20:51;12.40;87.20
25154;DHT22;47555;51.038;6.280;2023-03-21T10:23:19;12.50;88.20
25154;DHT22;47555;51.038;6.280;2023-03-21T10:25:48;12.50;85.30
25154;DHT22;47555;51.038;6.280;2023-03-21T10:28:21;12.50;83.80
25154;DHT22;47555;51.038;6.280;2023-03-21T10:30:54;12.60;81.00
25154;DHT22;47555;51.038;6.280;2023-03-21T10:33:26;12.60;80.60
25154;DHT22;47555;51.038;6.280;2023-03-21T10:36:09;12.60;78.50
25154;DHT22;47555;51.038;6.280;2023-03-21T10:38:37;12.60;80.20
25154;DHT22;47555;51.038;6.280;2023-03-21T10:41:05;12.70;80.00
25154;DHT22;47555;51.038;6.280;2023-03-21T10:43:35;12.70;79.60
25154;DHT22;47555;51.038;6.280;2023-03-21T10:46:15;12.80;77.90
25154;DHT22;47555;51.038;6.280;2023-03-21T10:48:42;12.80;79.40
25154;DHT22;47555;51.038;6.280;2023-03-21T10:51:16;12.80;79.20
25154;DHT22;47555;51.038;6.280;2023-03-21T10:53:55;12.90;78.70
25154;DHT22;47555;51.038;6.280;2023-03-21T10:56:30;12.80;78.30
25154;DHT22;47555;51.038;6.280;2023-03-21T10:59:00;12.90;78.70
25154;DHT22;47555;51.038;6.280;2023-03-21T11:01:36;12.90;79.20
25154;DHT22;47555;51.038;6.280;2023-03-21T11:04:13;12.90;76.20
25154;DHT22;47555;51.038;6.280;2023-03-21T11:06:42;12.90;74.30
25154;DHT22;47555;51.038;6.280;2023-03-21T11:09:17;12.90;74.60
25154;DHT22;47555;51.038;6.280;2023-03-21T11:11:52;13.00;75.40
25154;DHT22;47555;51.038;6.280;2023-03-21T11:14:46;13.00;75.10
25154;DHT22;47555;51.038;6.280;2023-03-21T11:17:29;13.20;72.70
25154;DHT22;47555;51.038;6.280;2023-03-21T11:20:05;13.00;72.80
25154;DHT22;47555;51.038;6.280;2023-03-21T11:22:39;13.10;75.00
25154;DHT22;47555;51.038;6.280;2023-03-21T11:25:07;13.00;71.80
25154;DHT22;47555;51.038;6.280;2023-03-21T11:27:33;13.00;70.90
25154;DHT22;47555;51.038;6.280;2023-03-21T11:30:01;12.90;70.60
25154;DHT22;47555;51.038;6.280;2023-03-21T11:32:34;12.90;70.10
25154;DHT22;47555;51.038;6.280;2023-03-21T11:37:51;12.70;71.90
25154;DHT22;47555;51.038;6.280;2023-03-21T11:40:27;12.70;72.10
25154;DHT22;47555;51.038;6.280;2023-03-21T11:42:55;12.70;75.80
25154;DHT22;47555;51.038;6.280;2023-03-21T11:45:30;12.70;73.70
25154;DHT22;47555;51.038;6.280;2023-03-21T11:47:58;12.60;74.80
25154;DHT22;47555;51.038;6.280;2023-03-21T11:50:34;12.60;76.10
25154;DHT22;47555;51.038;6.280;2023-03-21T11:53:20;12.50;75.00
25154;DHT22;47555;51.038;6.280;2023-03-21T11:59:15;12.50;79.40
25154;DHT22;47555;51.038;6.280;2023-03-21T12:02:02;12.60;79.20
25154;DHT22;47555;51.038;6.280;2023-03-21T12:04:52;12.70;78.50
25154;DHT22;47555;51.038;6.280;2023-03-21T12:07:44;12.80;76.00
25154;DHT22;47555;51.038;6.280;2023-03-21T12:16:14;13.20;71.40
25154;DHT22;47555;51.038;6.280;2023-03-21T12:22:09;13.30;66.50
25154;DHT22;47555;51.038;6.280;2023-03-21T12:24:56;13.30;66.20
25154;DHT22;47555;51.038;6.280;2023-03-21T12:30:37;13.40;64.70
25154;DHT22;47555;51.038;6.280;2023-03-21T12:36:11;13.50;66.40
25154;DHT22;47555;51.038;6.280;2023-03-21T12:44:11;13.60;63.50
25154;DHT22;47555;51.038;6.280;2023-03-21T12:47:04;13.60;62.20
25154;DHT22;47555;51.038;6.280;2023-03-21T12:49:47;13.60;65.50
25154;DHT22;47555;51.038;6.280;2023-03-21T12:52:42;13.60;61.90
25154;DHT22;47555;51.038;6.280;2023-03-21T12:55:20;13.70;63.70
25154;DHT22;47555;51.038;6.280;2023-03-21T12:58:00;13.70;62.00
25154;DHT22;47555;51.038;6.280;2023-03-21T13:03:17;13.90;62.40
25154;DHT22;47555;51.038;6.280;2023-03-21T13:05:57;14.10;59.40
25154;DHT22;47555;51.038;6.280;2023-03-21T13:08:36;14.30;58.20
25154;DHT22;47555;51.038;6.280;2023-03-21T13:11:04;14.30;56.80
25154;DHT22;47555;51.038;6.280;2023-03-21T13:13:46;14.40;54.90
25154;DHT22;47555;51.038;6.280;2023-03-21T13:16:41;14.40;58.50
25154;DHT22;47555;51.038;6.280;2023-03-21T13:19:27;14.40;55.20
25154;DHT22;47555;51.038;6.280;2023-03-21T13:22:13;14.50;56.80
25154;DHT22;47555;51.038;6.280;2023-03-21T13:24:59;14.50;53.30
25154;DHT22;47555;51.038;6.280;2023-03-21T13:27:35;14.40;54.60
25154;DHT22;47555;51.038;6.280;2023-03-21T13:30:25;14.40;52.80
25154;DHT22;47555;51.038;6.280;2023-03-21T13:33:08;14.30;54.10
25154;DHT22;47555;51.038;6.280;2023-03-21T13:35:37;14.30;55.00
25154;DHT22;47555;51.038;6.280;2023-03-21T13:38:13;14.30;56.30
25154;DHT22;47555;51.038;6.280;2023-03-21T13:40:46;14.30;55.70
25154;DHT22;47555;51.038;6.280;2023-03-21T13:46:09;14.60;55.60
25154;DHT22;47555;51.038;6.280;2023-03-21T13:51:07;15.00;53.70
25154;DHT22;47555;51.038;6.280;2023-03-21T13:53:37;15.00;50.80
25154;DHT22;47555;51.038;6.280;2023-03-21T13:58:49;15.00;49.70
25154;DHT22;47555;51.038;6.280;2023-03-21T14:01:27;15.00;51.20
25154;DHT22;47555;51.038;6.280;2023-03-21T14:04:10;15.10;51.40
25154;DHT22;47555;51.038;6.280;2023-03-21T14:06:38;15.10;48.40
25154;DHT22;47555;51.038;6.280;2023-03-21T14:09:05;15.10;49.60
25154;DHT22;47555;51.038;6.280;2023-03-21T14:11:32;15.10;45.70
25154;DHT22;47555;51.038;6.280;2023-03-21T14:14:00;15.10;45.50
25154;DHT22;47555;51.038;6.280;2023-03-21T14:16:27;15.10;44.90
25154;DHT22;47555;51.038;6.280;2023-03-21T14:18:56;15.10;44.40
25154;DHT22;47555;51.038;6.280;2023-03-21T14:21:30;15.10;47.00
25154;DHT22;47555;51.038;6.280;2023-03-21T14:24:01;15.20;46.10
25154;DHT22;47555;51.038;6.280;2023-03-21T14:26:34;15.40;47.60
25154;DHT22;47555;51.038;6.280;2023-03-21T14:29:02;15.50;47.30
25154;DHT22;47555;51.038;6.280;2023-03-21T14:31:28;15.80;43.60
25154;DHT22;47555;51.038;6.280;2023-03-21T14:33:58;15.90;40.80
25154;DHT22;47555;51.038;6.280;2023-03-21T14:36:28;15.80;41.40
25154;DHT22;47555;51.038;6.280;2023-03-21T14:41:33;15.70;40.50
25154;DHT22;47555;51.038;6.280;2023-03-21T14:44:16;15.70;41.90
25154;DHT22;47555;51.038;6.280;2023-03-21T14:46:46;15.50;41.10
25154;DHT22;47555;51.038;6.280;2023-03-21T14:49:20;15.40;42.30
25154;DHT22;47555;51.038;6.280;2023-03-21T14:51:46;15.40;41.50
25154;DHT22;47555;51.038;6.280;2023-03-21T14:54:16;15.30;42.50
25154;DHT22;47555;51.038;6.280;2023-03-21T14:56:51;15.20;41.80
25154;DHT22;47555;51.038;6.280;2023-03-21T14:59:21;15.30;41.70
25154;DHT22;47555;51.038;6.280;2023-03-21T15:01:49;15.20;42.20
25154;DHT22;47555;51.038;6.280;2023-03-21T15:04:15;15.30;42.80
25154;DHT22;47555;51.038;6.280;2023-03-21T15:09:15;15.80;43.70
25154;DHT22;47555;51.038;6.280;2023-03-21T15:11:40;16.00;43.00
25154;DHT22;47555;51.038;6.280;2023-03-21T15:14:08;16.10;43.10
25154;DHT22;47555;51.038;6.280;2023-03-21T15:16:36;16.10;38.20
25154;DHT22;47555;51.038;6.280;2023-03-21T15:19:03;16.10;38.30
25154;DHT22;47555;51.038;6.280;2023-03-21T15:21:36;16.10;38.90
25154;DHT22;47555;51.038;6.280;2023-03-21T15:24:14;16.20;38.90
25154;DHT22;47555;51.038;6.280;2023-03-21T15:26:46;16.20;38.40
25154;DHT22;47555;51.038;6.280;2023-03-21T15:29:13;16.20;39.40
25154;DHT22;47555;51.038;6.280;2023-03-21T15:31:39;16.20;39.60
25154;DHT22;47555;51.038;6.280;2023-03-21T15:34:05;16.20;40.10
25154;DHT22;47555;51.038;6.280;2023-03-21T15:36:34;16.20;38.30
25154;DHT22;47555;51.038;6.280;2023-03-21T15:39:05;16.10;38.60
25154;DHT22;47555;51.038;6.280;2023-03-21T15:41:32;16.20;40.20
25154;DHT22;47555;51.038;6.280;2023-03-21T15:51:37;16.30;39.30
25154;DHT22;47555;51.038;6.280;2023-03-21T15:54:03;16.20;39.00
25154;DHT22;47555;51.038;6.280;2023-03-21T15:56:32;16.10;39.60
25154;DHT22;47555;51.038;6.280;2023-03-21T15:59:01;16.00;40.10
25154;DHT22;47555;51.038;6.280;2023-03-21T16:01:29;15.90;41.00
25154;DHT22;47555;51.038;6.280;2023-03-21T16:04:07;15.90;40.90
25154;DHT22;47555;51.038;6.280;2023-03-21T16:06:36;15.90;40.50
25154;DHT22;47555;51.038;6.280;2023-03-21T16:11:42;15.80;39.70
25154;DHT22;47555;51.038;6.280;2023-03-21T16:14:09;15.70;40.90
25154;DHT22;47555;51.038;6.280;2023-03-21T16:16:35;15.60;41.80
25154;DHT22;47555;51.038;6.280;2023-03-21T16:19:01;15.50;42.70
25154;DHT22;47555;51.038;6.280;2023-03-21T16:21:29;15.40;42.80
25154;DHT22;47555;51.038;6.280;2023-03-21T16:23:56;15.30;43.50
25154;DHT22;47555;51.038;6.280;2023-03-21T16:26:28;15.20;43.20
25154;DHT22;47555;51.038;6.280;2023-03-21T16:28:54;15.00;44.40
25154;DHT22;47555;51.038;6.280;2023-03-21T16:31:22;15.00;45.10
25154;DHT22;47555;51.038;6.280;2023-03-21T16:33:49;14.90;46.30
25154;DHT22;47555;51.038;6.280;2023-03-21T16:36:22;14.80;46.30
25154;DHT22;47555;51.038;6.280;2023-03-21T16:38:49;14.80;46.40
25154;DHT22;47555;51.038;6.280;2023-03-21T16:41:17;14.70;46.90
25154;DHT22;47555;51.038;6.280;2023-03-21T16:43:43;14.60;47.40
25154;DHT22;47555;51.038;6.280;2023-03-21T16:46:17;14.60;47.20
25154;DHT22;47555;51.038;6.280;2023-03-21T16:48:45;14.50;48.00
25154;DHT22;47555;51.038;6.280;2023-03-21T16:51:22;14.50;48.50
25154;DHT22;47555;51.038;6.280;2023-03-21T16:53:50;14.40;49.10
25154;DHT22;47555;51.038;6.280;2023-03-21T16:56:19;14.40;49.10
25154;DHT22;47555;51.038;6.280;2023-03-21T16:58:45;14.40;49.10
25154;DHT22;47555;51.038;6.280;2023-03-21T17:01:16;14.30;49.70
25154;DHT22;47555;51.038;6.280;2023-03-21T17:03:45;14.30;50.00
25154;DHT22;47555;51.038;6.280;2023-03-21T17:06:20;14.20;50.00
25154;DHT22;47555;51.038;6.280;2023-03-21T17:08:46;14.20;50.10
25154;DHT22;47555;51.038;6.280;2023-03-21T17:11:14;14.20;50.20
25154;DHT22;47555;51.038;6.280;2023-03-21T17:13:46;14.20;50.60
25154;DHT22;47555;51.038;6.280;2023-03-21T17:16:13;14.10;50.80